Time;durP1;ratioP1;P1;durP2;ratioP2;P2;SDS_P1;SDS_P2;PMS_P1;PMS_P2;Temp;Humidity;BMP_temperature;BMP_pressure;BME280_temperature;BME280_humidity;BME280_pressure;Samples;Min_cycle;Max_cycle;Signal;HPM_P1;HPM_P2
2021/03/09 06:00:28;;;;;;;17.52;10.82;;;;;;;11.06;33.96;94848.56;5750774;23;20423;-86
2021/03/09 06:02:54;;;;;;;14.20;10.60;;;;;;;10.95;33.66;94846.38;4862370;29;20041;-83
2021/03/09 06:05:20;;;;;;;14.90;12.32;;;;;;;13.00;30.59;94844.25;4856425;29;20029;-87
2021/03/09 06:07:45;;;;;;;15.57;12.35;;;;;;;10.11;34.10;94847.31;4857681;29;20064;-87
2021/03/09 06:10:24;;;;;;;19.25;14.40;;;;;;;11.99;31.87;94830.69;4873458;29;20042;-83
2021/03/09 06:12:50;;;;;;;22.23;19.80;;;;;;;11.20;32.05;94847.78;4857273;29;20044;-84
2021/03/09 06:15:16;;;;;;;21.83;18.60;;;;;;;11.63;31.68;94856.56;4857751;29;20116;-84
2021/03/09 06:17:42;;;;;;;24.60;19.17;;;;;;;11.20;31.92;94834.81;4856801;29;20171;-86
2021/03/09 06:20:29;;;;;;;31.63;24.08;;;;;;;13.30;30.00;94847.53;4857618;29;20115;-80
2021/03/09 06:22:58;;;;;;;17.02;14.98;;;;;;;15.07;27.34;94842.97;4856887;29;20030;-75
2021/03/09 06:25:29;;;;;;;17.35;13.52;;;;;;;16.63;25.09;94847.97;4856850;29;20041;-77
2021/03/09 06:28:00;;;;;;;19.15;13.40;;;;;;;16.33;25.28;94845.13;4858056;29;20116;-76
2021/03/09 06:30:25;;;;;;;17.85;13.95;;;;;;;16.55;24.77;94852.66;4855499;29;20029;-76
2021/03/09 06:32:51;;;;;;;17.33;13.73;;;;;;;10.72;30.11;94861.97;4857474;29;20034;-77
2021/03/09 06:35:29;;;;;;;17.90;15.85;;;;;;;9.37;33.19;94863.28;4856150;29;20043;-77
2021/03/09 06:38:26;;;;;;;23.70;16.10;;;;;;;7.72;36.30;94865.22;4859104;29;20026;-75
2021/03/09 06:41:16;;;;;;;27.60;18.25;;;;;;;6.55;37.37;94869.16;4858678;29;20669;-75
2021/03/09 06:43:43;;;;;;;22.23;14.18;;;;;;;5.85;40.86;94875.06;4854043;29;20034;-75
2021/03/09 06:46:19;;;;;;;17.02;12.63;;;;;;;5.43;41.49;94876.47;4857503;29;20033;-75
2021/03/09 06:48:52;;;;;;;25.45;16.13;;;;;;;5.44;42.06;94878.91;4858360;29;20033;-75
2021/03/09 06:51:31;;;;;;;31.42;18.20;;;;;;;5.25;43.14;94881.56;4858690;29;20033;-75
2021/03/09 06:54:06;;;;;;;26.40;16.75;;;;;;;4.92;44.72;94893.09;4857098;29;20076;-74
2021/03/09 06:56:50;;;;;;;27.42;15.88;;;;;;;4.99;47.67;94883.09;4867751;29;20032;-75
2021/03/09 06:59:35;;;;;;;26.05;17.08;;;;;;;2.72;55.06;94892.59;4876595;29;20060;-75
2021/03/09 07:02:10;;;;;;;26.10;17.02;;;;;;;3.70;54.15;94885.09;4875737;29;20598;-75
2021/03/09 07:04:45;;;;;;;22.52;15.65;;;;;;;4.12;51.71;94877.22;4859511;29;20048;-75
2021/03/09 07:07:12;;;;;;;22.33;14.13;;;;;;;3.71;52.96;94886.75;4856257;29;20025;-75
2021/03/09 07:09:52;;;;;;;21.67;14.45;;;;;;;3.48;54.88;94882.75;4857373;29;20038;-75
2021/03/09 07:12:18;;;;;;;;;;;;;;;4.21;54.58;94884.91;4858285;29;20060;-76
2021/03/09 07:14:43;;;;;;;29.77;16.35;;;;;;;4.43;52.72;94881.28;4858512;29;20404;-76
2021/03/09 07:17:09;;;;;;;24.90;15.10;;;;;;;4.22;53.14;94888.28;4857742;29;20037;-76
2021/03/09 07:19:44;;;;;;;22.48;16.05;;;;;;;3.69;54.88;94885.25;4841431;29;20343;-75
2021/03/09 07:22:13;;;;;;;29.92;17.52;;;;;;;3.66;54.82;94900.88;4861952;29;20029;-75
2021/03/09 07:24:45;;;;;;;30.88;18.67;;;;;;;3.71;54.89;94903.84;4858312;29;20033;-76
2021/03/09 07:27:13;;;;;;;33.88;19.27;;;;;;;3.97;54.63;94897.31;4860922;29;20068;-75
2021/03/09 07:29:43;;;;;;;47.30;25.77;;;;;;;3.52;55.44;94896.09;4867715;29;20037;-76
2021/03/09 07:32:09;;;;;;;39.13;23.48;;;;;;;4.63;52.62;94900.03;4865083;29;20044;-76
2021/03/09 07:34:34;;;;;;;61.95;32.58;;;;;;;4.78;53.15;94891.78;4871306;29;20037;-76
2021/03/09 07:37:00;;;;;;;60.92;27.98;;;;;;;4.36;53.18;94887.91;4861230;29;20033;-76
2021/03/09 07:39:25;;;;;;;35.85;20.55;;;;;;;4.57;51.50;94890.31;4847334;29;20101;-76
2021/03/09 07:41:51;;;;;;;29.27;19.77;;;;;;;4.96;54.09;94894.47;4872129;29;20037;-76
2021/03/09 07:44:16;;;;;;;27.50;17.13;;;;;;;5.18;50.77;94881.31;4862395;29;20029;-76
2021/03/09 07:46:42;;;;;;;29.67;18.60;;;;;;;4.75;52.41;94874.09;4842994;29;20025;-76
2021/03/09 07:49:07;;;;;;;25.15;18.42;;;;;;;6.16;50.05;94891.00;4861973;29;20044;-79
2021/03/09 07:51:33;;;;;;;24.35;16.85;;;;;;;6.93;47.31;94885.25;4863146;29;20120;-76
2021/03/09 07:54:11;;;;;;;28.00;19.02;;;;;;;7.60;46.64;94893.03;4869996;29;20089;-76
2021/03/09 07:56:37;;;;;;;30.98;19.60;;;;;;;7.41;46.31;94891.50;4855724;29;20230;-76
2021/03/09 07:59:07;;;;;;;29.67;18.17;;;;;;;7.37;46.59;94890.19;4848011;29;20040;-77
2021/03/09 08:01:45;;;;;;;27.83;18.55;;;;;;;6.26;46.67;94887.41;4875007;29;20053;-76
2021/03/09 08:04:11;;;;;;;26.10;19.60;;;;;;;6.57;47.30;94885.28;4866507;29;20110;-77
2021/03/09 08:06:43;;;;;;;24.83;16.77;;;;;;;6.44;44.83;94884.03;4882335;29;20029;-76
2021/03/09 08:09:35;;;;;;;28.38;18.67;;;;;;;6.03;46.38;94868.22;4862670;29;20025;-77
2021/03/09 08:12:01;;;;;;;37.78;20.88;;;;;;;4.54;51.64;94865.75;4868365;29;20118;-77
2021/03/09 08:14:26;;;;;;;35.67;21.55;;;;;;;4.76;50.06;94868.03;4855927;29;20046;-77
2021/03/09 08:16:52;;;;;;;35.33;22.80;;;;;;;4.86;48.79;94877.47;4856337;29;20030;-77
2021/03/09 08:19:24;;;;;;;28.70;19.27;;;;;;;4.95;48.41;94876.63;4853514;29;20072;-78
2021/03/09 08:22:00;;;;;;;30.42;19.55;;;;;;;6.12;48.23;94884.53;4852188;29;20034;-78
2021/03/09 08:24:41;;;;;;;31.17;19.20;;;;;;;6.62;45.21;94883.06;4854482;29;20468;-77
2021/03/09 08:27:28;;;;;;;27.17;18.85;;;;;;;6.65;44.45;94880.19;4846646;29;20033;-78
2021/03/09 08:30:03;;;;;;;29.70;18.73;;;;;;;6.43;44.79;94877.25;4845916;29;20055;-77
2021/03/09 08:32:34;;;;;;;24.17;16.60;;;;;;;5.61;45.98;94877.34;4845315;29;20041;-77
2021/03/09 08:35:11;;;;;;;35.05;18.95;;;;;;;5.34;45.21;94878.13;4844316;29;20025;-77
2021/03/09 08:37:37;;;;;;;33.95;19.15;;;;;;;5.56;46.01;94882.09;4844021;29;20041;-77
2021/03/09 08:40:13;;;;;;;23.25;17.80;;;;;;;6.24;45.29;94870.50;4840803;29;20026;-77
2021/03/09 08:43:00;;;;;;;29.45;18.58;;;;;;;6.17;43.72;94878.00;4846702;29;20045;-78
2021/03/09 08:45:39;;;;;;;30.50;19.23;;;;;;;6.57;45.34;94874.19;4861473;29;20126;-78
2021/03/09 08:48:05;;;;;;;27.85;16.00;;;;;;;6.56;43.51;94877.69;4868079;29;20065;-78
2021/03/09 08:50:43;;;;;;;31.60;16.60;;;;;;;7.04;43.30;94872.09;4879074;29;20041;-78
2021/03/09 08:53:27;;;;;;;28.85;17.25;;;;;;;6.98;42.65;94870.13;4860700;29;20056;-77
2021/03/09 08:55:54;;;;;;;18.10;12.65;;;;;;;7.20;41.53;94861.91;4859760;29;20041;-78
2021/03/09 08:58:19;;;;;;;17.20;13.40;;;;;;;7.13;41.36;94864.28;4860300;29;20033;-78
2021/03/09 09:00:44;;;;;;;21.98;14.35;;;;;;;7.27;40.90;94852.63;4868815;29;20050;-77
2021/03/09 09:03:10;;;;;;;20.02;14.15;;;;;;;7.42;41.77;94851.06;4853461;29;20036;-78
2021/03/09 09:05:35;;;;;;;17.42;12.40;;;;;;;7.19;41.28;94861.09;4861830;29;20045;-79
2021/03/09 09:08:01;;;;;;;14.20;12.48;;;;;;;7.39;41.59;94869.41;4853648;29;20440;-78
2021/03/09 09:10:26;;;;;;;19.45;12.77;;;;;;;7.41;40.92;94859.78;4858899;29;20440;-79
2021/03/09 09:12:52;;;;;;;18.13;12.13;;;;;;;6.98;41.97;94867.56;4846714;29;20449;-78
2021/03/09 09:15:25;;;;;;;18.33;11.52;;;;;;;6.86;42.31;94844.66;4846754;29;20030;-79
2021/03/09 09:18:00;;;;;;;16.30;11.30;;;;;;;7.07;41.98;94872.63;4855265;29;20480;-79
2021/03/09 09:20:33;;;;;;;16.30;12.27;;;;;;;7.29;41.63;94873.88;4851910;29;20411;-79
2021/03/09 09:23:15;;;;;;;18.20;11.85;;;;;;;6.64;42.76;94870.06;4866249;29;20033;-79
2021/03/09 09:25:45;;;;;;;19.67;14.40;;;;;;;7.28;42.50;94861.97;4858223;29;20072;-78
2021/03/09 09:28:30;;;;;;;20.70;12.88;;;;;;;7.33;41.87;94864.88;4861381;29;20070;-78
2021/03/09 09:30:57;;;;;;;19.33;12.95;;;;;;;7.45;41.61;94861.06;4868335;29;20124;-79
2021/03/09 09:33:23;;;;;;;16.65;13.02;;;;;;;7.50;41.60;94870.94;4867748;29;20041;-79
2021/03/09 09:35:49;;;;;;;19.23;13.75;;;;;;;7.24;41.94;94868.38;4854534;29;20037;-79
2021/03/09 09:38:15;;;;;;;22.60;14.00;;;;;;;7.48;42.14;94865.13;4854328;29;20040;-78
2021/03/09 09:40:46;;;;;;;20.60;14.20;;;;;;;7.76;41.51;94867.34;4857233;29;20089;-78
2021/03/09 09:43:13;;;;;;;18.30;13.80;;;;;;;7.86;41.62;94870.59;4855645;29;20486;-77
2021/03/09 09:46:00;;;;;;;24.08;13.82;;;;;;;7.51;41.49;94849.34;4849780;29;20029;-79
2021/03/09 09:48:26;;;;;;;16.00;13.00;;;;;;;7.36;40.89;94838.81;4850657;29;20065;-78
2021/03/09 09:50:53;;;;;;;25.35;15.45;;;;;;;7.83;42.24;94855.41;4847546;29;20032;-78
2021/03/09 09:53:38;;;;;;;21.42;14.20;;;;;;;6.44;43.00;94859.13;4851164;29;20042;-78
2021/03/09 09:56:04;;;;;;;22.08;14.63;;;;;;;7.30;42.58;94847.97;4853179;29;20519;-77
2021/03/09 09:58:46;;;;;;;24.05;15.32;;;;;;;7.66;41.21;94843.47;4860755;29;20506;-77
2021/03/09 10:01:13;;;;;;;23.80;14.15;;;;;;;6.63;42.77;94838.38;4861946;29;20515;-78
2021/03/09 10:03:55;;;;;;;21.13;13.75;;;;;;;7.12;42.71;94849.81;4861500;29;20044;-78
2021/03/09 10:06:21;;;;;;;25.00;15.43;;;;;;;7.67;42.45;94846.84;4856679;29;20050;-78
2021/03/09 10:08:46;;;;;;;18.98;13.50;;;;;;;6.45;44.56;94854.78;4858572;29;20068;-77
2021/03/09 10:11:12;;;;;;;22.95;14.57;;;;;;;6.81;44.75;94835.75;4862766;29;20495;-79
2021/03/09 10:13:38;;;;;;;21.20;14.93;;;;;;;6.97;44.04;94847.94;4864141;29;20043;-77
2021/03/09 10:16:03;;;;;;;24.63;15.00;;;;;;;7.24;43.48;94832.31;4860473;29;20033;-77
2021/03/09 10:18:30;;;;;;;26.17;15.65;;;;;;;7.85;42.88;94843.19;4861323;29;20045;-78
2021/03/09 10:21:13;;;;;;;20.23;14.93;;;;;;;7.29;42.91;94842.97;4859490;29;20039;-77
2021/03/09 10:23:53;;;;;;;19.63;14.60;;;;;;;7.38;43.77;94842.84;4859901;29;20037;-77
2021/03/09 10:26:35;;;;;;;22.30;15.07;;;;;;;8.16;42.13;94834.88;4860201;29;20037;-78
2021/03/09 10:29:05;;;;;;;20.75;16.35;;;;;;;8.54;40.57;94776.72;4860183;29;20427;-78
2021/03/09 10:31:44;;;;;;;22.40;17.15;;;;;;;8.72;41.25;94827.22;4854101;29;20025;-78
2021/03/09 10:34:10;;;;;;;22.27;15.40;;;;;;;9.15;40.27;94820.06;4854257;29;20104;-77
2021/03/09 10:36:51;;;;;;;25.50;16.58;;;;;;;7.22;42.61;94822.19;4864852;29;20037;-79
2021/03/09 10:39:17;;;;;;;22.52;16.27;;;;;;;8.68;40.93;94814.78;4865813;29;20098;-77
2021/03/09 10:41:43;;;;;;;20.90;16.38;;;;;;;8.98;39.44;94819.28;4860453;29;20873;-77
2021/03/09 10:44:31;;;;;;;20.08;14.77;;;;;;;9.49;39.92;94816.22;4856184;29;20029;-78
2021/03/09 10:46:57;;;;;;;20.45;16.48;;;;;;;9.78;38.91;94809.63;4862300;29;20456;-77
2021/03/09 10:49:22;;;;;;;20.85;14.77;;;;;;;8.58;39.71;94809.78;4864763;29;20040;-78
2021/03/09 10:51:57;;;;;;;27.15;15.70;;;;;;;8.65;40.47;94813.34;4857027;29;20030;-78
2021/03/09 10:54:23;;;;;;;26.17;16.88;;;;;;;9.37;40.84;94794.31;4865988;29;20032;-77
2021/03/09 10:56:48;;;;;;;21.98;16.65;;;;;;;9.94;39.32;94804.38;4861327;29;20399;-79
2021/03/09 10:59:14;;;;;;;22.02;15.82;;;;;;;9.87;38.32;94801.66;4858453;29;20469;-77
2021/03/09 11:01:39;;;;;;;21.98;14.75;;;;;;;10.10;38.21;94793.13;4862841;29;20503;-78
2021/03/09 11:04:04;;;;;;;17.95;14.77;;;;;;;9.91;36.62;94792.59;4863166;29;20033;-77
2021/03/09 11:06:30;;;;;;;16.73;14.23;;;;;;;9.34;37.03;94792.03;4848345;29;20026;-77
2021/03/09 11:08:55;;;;;;;16.50;14.45;;;;;;;9.67;37.12;94784.13;4847089;29;20559;-78
2021/03/09 11:11:21;;;;;;;20.83;14.40;;;;;;;9.91;37.46;94784.03;4853790;29;20045;-77
2021/03/09 11:13:46;;;;;;;19.65;14.95;;;;;;;9.49;38.17;94782.63;4855137;29;20415;-77
2021/03/09 11:16:12;;;;;;;21.73;14.23;;;;;;;8.42;39.92;94777.06;4857811;29;20053;-77
2021/03/09 11:18:37;;;;;;;22.20;14.80;;;;;;;8.90;39.66;94770.19;4858042;29;20025;-77
2021/03/09 11:21:03;;;;;;;18.42;12.98;;;;;;;9.15;39.09;94724.47;4856877;29;20033;-77
2021/03/09 11:23:28;;;;;;;17.58;11.75;;;;;;;8.40;38.29;94770.44;4856945;29;20407;-77
2021/03/09 11:25:54;;;;;;;18.63;13.63;;;;;;;9.68;37.59;94770.25;4860999;29;20037;-77
2021/03/09 11:28:19;;;;;;;16.65;14.30;;;;;;;9.82;38.06;94757.41;4862361;29;20025;-77
2021/03/09 11:30:45;;;;;;;18.65;15.00;;;;;;;10.21;37.05;94752.16;4859846;29;20483;-77
2021/03/09 11:33:10;;;;;;;19.65;15.52;;;;;;;10.59;36.44;94752.97;4854743;29;20029;-77
2021/03/09 11:35:36;;;;;;;16.10;13.23;;;;;;;9.68;36.47;94757.31;4856337;29;20076;-77
2021/03/09 11:38:01;;;;;;;17.92;14.38;;;;;;;10.49;37.45;94753.22;4864981;29;20025;-78
2021/03/09 11:40:27;;;;;;;16.67;14.38;;;;;;;10.36;36.87;94752.22;4863390;29;20447;-77
2021/03/09 11:42:52;;;;;;;19.30;14.27;;;;;;;10.67;36.18;94739.94;4865479;29;20033;-77
2021/03/09 11:45:18;;;;;;;15.82;14.05;;;;;;;10.95;37.54;94738.38;4849063;29;20017;-77
2021/03/09 11:47:43;;;;;;;25.33;14.38;;;;;;;10.97;34.31;94736.41;4846810;29;20038;-78
2021/03/09 11:50:09;;;;;;;16.70;13.63;;;;;;;9.80;35.41;94740.44;4858692;29;20033;-77
2021/03/09 11:52:35;;;;;;;17.70;14.73;;;;;;;10.01;36.11;94738.84;4857117;29;20032;-78
2021/03/09 11:55:00;;;;;;;19.63;14.82;;;;;;;10.02;35.46;94731.88;4860550;29;20029;-77
2021/03/09 11:57:26;;;;;;;20.08;14.18;;;;;;;10.12;35.79;94727.28;4867488;29;20503;-77
2021/03/09 11:59:51;;;;;;;14.48;12.23;;;;;;;9.03;35.20;94713.69;4862116;29;20116;-77
2021/03/09 12:02:17;;;;;;;17.30;13.15;;;;;;;8.85;35.89;94720.84;4865790;29;20113;-78
2021/03/09 12:04:42;;;;;;;15.85;12.45;;;;;;;9.11;36.32;94723.19;4868157;29;20396;-78
2021/03/09 12:07:08;;;;;;;19.27;12.95;;;;;;;8.94;36.14;94720.66;4880581;29;20030;-79
2021/03/09 12:09:33;;;;;;;15.05;12.55;;;;;;;10.00;34.76;94715.72;4856069;29;20042;-78
2021/03/09 12:11:59;;;;;;;17.17;12.63;;;;;;;9.78;35.53;94707.00;4856626;29;20021;-78
2021/03/09 12:14:24;;;;;;;15.73;13.88;;;;;;;10.01;35.57;94702.63;4861668;29;20414;-79
2021/03/09 12:16:50;;;;;;;17.17;13.88;;;;;;;7.67;35.85;94509.25;5071133;24;20065;-78
2021/03/09 12:19:15;;;;;;;17.40;12.60;;;;;;;6.78;37.76;94468.06;4852821;29;20046;-79
2021/03/09 12:21:41;;;;;;;16.20;12.90;;;;;;;8.02;37.38;94534.63;4850678;29;20037;-82
2021/03/09 12:24:07;;;;;;;17.60;12.98;;;;;;;8.05;38.48;94547.19;4843528;29;20030;-79
2021/03/09 12:26:33;;;;;;;16.65;13.90;;;;;;;8.75;37.46;94558.38;4849482;29;20025;-79
2021/03/09 12:28:59;;;;;;;15.75;14.05;;;;;;;8.83;37.33;94519.59;4809239;29;20076;-78
2021/03/09 12:31:25;;;;;;;15.32;12.20;;;;;;;8.53;36.90;94556.56;4825994;29;20163;-78
2021/03/09 12:33:51;;;;;;;14.68;13.02;;;;;;;8.18;36.78;94560.38;4833788;29;20030;-79
2021/03/09 12:36:16;;;;;;;14.80;13.00;;;;;;;8.49;37.12;94604.31;4801867;29;20477;-79
2021/03/09 12:38:42;;;;;;;17.85;13.80;;;;;;;8.45;37.30;94544.50;4796886;29;20129;-78
2021/03/09 12:41:07;;;;;;;21.30;13.00;;;;;;;8.53;36.69;94604.78;4832884;29;20030;-80
2021/03/09 12:43:33;;;;;;;15.90;12.85;;;;;;;8.93;37.39;94617.50;4829393;29;20404;-78
2021/03/09 12:45:58;;;;;;;17.42;11.52;;;;;;;9.18;37.01;94685.38;4827064;29;20053;-77
2021/03/09 12:48:24;;;;;;;14.50;11.18;;;;;;;8.93;37.20;94654.47;4829653;29;20475;-79
2021/03/09 12:50:49;;;;;;;13.57;11.90;;;;;;;9.40;36.84;94685.44;4817098;29;20045;-79
2021/03/09 12:53:15;;;;;;;14.57;11.73;;;;;;;9.41;37.35;94657.78;4845482;29;20030;-79
2021/03/09 12:55:40;;;;;;;18.33;12.60;;;;;;;9.65;38.16;94672.34;4843495;29;20510;-78
2021/03/09 12:58:06;;;;;;;12.65;10.68;;;;;;;9.47;37.92;94677.78;4833305;29;20029;-81
2021/03/09 13:00:31;;;;;;;12.82;9.82;;;;;;;9.25;37.90;94674.19;4849845;29;20033;-78
2021/03/09 13:02:57;;;;;;;11.75;7.47;;;;;;;9.26;36.92;94670.63;4864324;29;20088;-78
2021/03/09 13:05:22;;;;;;;7.25;5.65;;;;;;;9.23;37.11;94657.25;4844576;29;20033;-78
2021/03/09 13:07:47;;;;;;;11.55;9.40;;;;;;;8.86;37.63;94674.19;4845229;29;20089;-78
2021/03/09 13:10:13;;;;;;;14.77;10.63;;;;;;;8.78;38.82;94665.69;4847392;29;20412;-79
2021/03/09 13:12:39;;;;;;;20.77;12.80;;;;;;;8.26;40.25;94681.56;4855336;29;20045;-79
2021/03/09 13:15:06;;;;;;;14.57;12.05;;;;;;;8.26;40.64;94667.88;4833387;29;20026;-79
2021/03/09 13:17:31;;;;;;;14.93;10.63;;;;;;;8.35;40.44;94680.63;4846452;29;20081;-79
2021/03/09 13:19:57;;;;;;;12.27;9.73;;;;;;;8.40;39.29;94670.63;4844230;29;20042;-79
2021/03/09 13:22:22;;;;;;;14.68;10.98;;;;;;;8.44;39.16;94674.47;4830792;29;20408;-78
2021/03/09 13:24:48;;;;;;;12.68;9.57;;;;;;;8.58;39.99;94662.66;4827049;29;20033;-78
2021/03/09 13:27:14;;;;;;;12.43;10.30;;;;;;;8.26;40.17;94649.81;4843737;29;20416;-79
2021/03/09 13:29:39;;;;;;;16.15;11.15;;;;;;;8.48;39.56;94654.31;4829129;29;20129;-79
2021/03/09 13:32:06;;;;;;;15.35;10.68;;;;;;;8.44;40.43;94651.25;4812476;29;20022;-78
2021/03/09 13:34:31;;;;;;;11.43;10.02;;;;;;;8.56;41.00;94651.72;4825792;29;20029;-77
2021/03/09 13:36:57;;;;;;;12.07;10.25;;;;;;;8.88;40.04;94654.19;4838968;29;20045;-77
2021/03/09 13:39:22;;;;;;;12.52;8.88;;;;;;;8.92;39.67;94654.66;4823488;29;20027;-78
2021/03/09 13:41:48;;;;;;;16.35;8.82;;;;;;;8.97;39.98;94660.91;4829230;29;20029;-78
2021/03/09 13:44:13;;;;;;;14.82;10.82;;;;;;;8.77;40.34;94657.13;4845495;29;20036;-78
2021/03/09 13:46:39;;;;;;;11.70;9.80;;;;;;;8.86;41.22;94655.34;4860953;29;20481;-77
2021/03/09 13:49:04;;;;;;;5.07;3.75;;;;;;;8.61;38.83;94652.00;4829017;29;20036;-78
2021/03/09 13:51:30;;;;;;;3.83;3.17;;;;;;;8.68;39.47;94652.16;4846446;29;20041;-77
2021/03/09 13:53:55;;;;;;;4.47;2.90;;;;;;;8.86;39.65;94650.94;4859309;29;20029;-77
2021/03/09 13:56:20;;;;;;;4.95;3.70;;;;;;;8.52;41.13;94611.72;4861359;29;20066;-78
2021/03/09 13:58:46;;;;;;;8.77;5.50;;;;;;;8.53;41.78;94628.81;4829588;29;20040;-78
2021/03/09 14:01:11;;;;;;;6.15;4.30;;;;;;;8.61;42.15;94633.94;4848081;29;20033;-79
2021/03/09 14:03:37;;;;;;;3.72;3.38;;;;;;;8.19;41.85;94634.19;4842047;29;20408;-78
2021/03/09 14:06:02;;;;;;;4.47;3.17;;;;;;;8.05;42.68;94647.75;4842517;29;20106;-77
2021/03/09 14:08:28;;;;;;;3.85;2.90;;;;;;;7.98;43.13;94628.75;4825221;29;20068;-77
2021/03/09 14:10:53;;;;;;;5.45;2.70;;;;;;;7.95;43.39;94640.19;4824260;29;20038;-77
2021/03/09 14:13:19;;;;;;;4.85;2.60;;;;;;;8.03;44.01;94652.25;4826071;29;20033;-77
2021/03/09 14:15:44;;;;;;;3.05;2.35;;;;;;;7.96;43.87;94652.09;4826904;29;20034;-76
2021/03/09 14:18:10;;;;;;;6.35;3.50;;;;;;;7.85;43.71;94642.13;4810469;29;20085;-77
2021/03/09 14:20:35;;;;;;;9.18;4.57;;;;;;;7.88;42.72;94613.44;4838751;29;20095;-76
2021/03/09 14:23:01;;;;;;;7.63;4.25;;;;;;;7.91;41.84;94626.00;4806670;29;20099;-75
2021/03/09 14:25:26;;;;;;;7.03;4.00;;;;;;;8.19;41.75;94634.19;4805482;29;20026;-76
2021/03/09 14:27:52;;;;;;;5.97;3.97;;;;;;;8.20;41.45;94632.41;4820592;29;20037;-76
2021/03/09 14:30:18;;;;;;;6.57;4.25;;;;;;;8.34;40.95;94637.75;4805299;29;20049;-76
2021/03/09 14:32:44;;;;;;;6.40;4.57;;;;;;;8.52;40.48;94627.19;4835578;29;20093;-76
2021/03/09 14:35:10;;;;;;;5.97;5.40;;;;;;;8.65;41.30;94627.47;4819959;29;20026;-76
2021/03/09 14:37:35;;;;;;;5.55;5.05;;;;;;;8.49;42.06;94635.28;4821006;29;20078;-76
2021/03/09 14:40:22;;;;;;;5.00;4.47;;;;;;;8.27;41.48;94630.78;4835006;29;20026;-77
2021/03/09 14:42:47;;;;;;;4.32;3.92;;;;;;;8.37;40.67;94631.44;4834399;29;20086;-77
2021/03/09 14:45:13;;;;;;;3.85;3.47;;;;;;;8.36;41.22;94645.31;4835634;29;20026;-76
2021/03/09 14:47:39;;;;;;;3.53;3.05;;;;;;;8.21;41.15;94641.75;4820228;29;20074;-77
2021/03/09 14:50:06;;;;;;;5.35;3.78;;;;;;;8.36;41.13;94622.09;4837394;29;20057;-78
2021/03/09 14:52:32;;;;;;;4.20;3.33;;;;;;;8.29;41.19;94636.59;4804567;29;20038;-77
2021/03/09 14:54:58;;;;;;;6.75;4.00;;;;;;;8.37;41.75;94637.41;4806413;29;20024;-77
2021/03/09 14:57:23;;;;;;;5.72;3.55;;;;;;;8.08;44.26;94637.13;4836702;29;20038;-76
2021/03/09 14:59:49;;;;;;;3.88;3.47;;;;;;;8.29;43.00;94642.56;4840675;29;20070;-78
2021/03/09 15:02:15;;;;;;;5.00;3.75;;;;;;;8.36;42.57;94645.31;4839568;29;20503;-77
2021/03/09 15:04:41;;;;;;;4.00;3.30;;;;;;;7.88;42.52;94635.84;4834348;29;20488;-77
2021/03/09 15:07:06;;;;;;;3.83;3.50;;;;;;;7.81;44.05;94637.44;4835809;29;20029;-77
2021/03/09 15:09:32;;;;;;;3.88;3.47;;;;;;;7.76;44.80;94643.09;4819955;29;20508;-77
2021/03/09 15:11:57;;;;;;;7.45;3.35;;;;;;;7.77;43.34;94634.38;4836334;29;20412;-77
2021/03/09 15:14:23;;;;;;;8.40;3.38;;;;;;;8.20;43.32;94643.53;4818586;29;20034;-76
2021/03/09 15:16:49;;;;;;;5.47;3.47;;;;;;;8.10;42.54;94647.25;4820886;29;20377;-76
2021/03/09 15:19:15;;;;;;;8.02;4.72;;;;;;;7.77;44.76;94643.91;4820156;29;20040;-74
2021/03/09 15:21:41;;;;;;;4.00;3.33;;;;;;;7.25;46.75;94622.78;4834842;29;20022;-74
2021/03/09 15:24:07;;;;;;;6.20;4.30;;;;;;;7.13;47.38;94629.16;4820305;29;20468;-73
2021/03/09 15:26:32;;;;;;;7.30;4.00;;;;;;;7.33;46.99;94641.59;4819890;29;20026;-75
2021/03/09 15:28:58;;;;;;;4.10;3.67;;;;;;;7.31;47.13;94645.31;4836377;29;20038;-75
2021/03/09 15:31:23;;;;;;;9.20;6.45;;;;;;;7.55;47.33;94636.78;4835585;29;20030;-74
2021/03/09 15:33:50;;;;;;;12.10;9.20;;;;;;;7.37;47.74;94637.75;4820004;29;20034;-75
2021/03/09 15:36:15;;;;;;;7.75;5.63;;;;;;;7.48;48.61;94636.63;4789683;29;20453;-75
2021/03/09 15:38:41;;;;;;;12.70;6.80;;;;;;;7.52;49.05;94648.22;4835409;29;20098;-75
2021/03/09 15:41:06;;;;;;;20.35;14.52;;;;;;;7.57;48.16;94643.41;4804577;29;20098;-75
2021/03/09 15:43:32;;;;;;;8.82;4.60;;;;;;;6.83;49.19;94569.59;4820057;29;20026;-75
2021/03/09 15:45:58;;;;;;;5.70;4.05;;;;;;;7.50;48.24;94639.84;4819901;29;20038;-75
2021/03/09 15:48:23;;;;;;;7.35;4.25;;;;;;;7.68;47.97;94632.78;4835495;29;20033;-75
2021/03/09 15:50:49;;;;;;;6.68;4.38;;;;;;;7.70;48.07;94636.00;4819998;29;20396;-75
2021/03/09 15:53:14;;;;;;;6.82;3.83;;;;;;;7.48;47.94;94634.03;4834915;29;20034;-75
2021/03/09 15:55:41;;;;;;;7.55;3.70;;;;;;;7.45;47.62;94625.84;4819517;29;20034;-75
2021/03/09 15:58:06;;;;;;;4.75;4.13;;;;;;;7.25;48.19;94635.66;4819575;29;20022;-75
2021/03/09 16:00:32;;;;;;;7.15;3.83;;;;;;;6.90;49.59;94649.56;4818698;29;20481;-75
2021/03/09 16:02:57;;;;;;;7.03;3.30;;;;;;;6.84;50.89;94650.16;4821047;29;20090;-77
2021/03/09 16:05:23;;;;;;;6.50;3.80;;;;;;;6.78;51.18;94650.78;4839882;29;20041;-77
2021/03/09 16:07:49;;;;;;;4.32;3.22;;;;;;;6.80;51.34;94651.44;4826663;29;20510;-77
2021/03/09 16:10:15;;;;;;;4.13;3.63;;;;;;;6.76;52.21;94638.09;4821243;29;20040;-75
2021/03/09 16:12:40;;;;;;;5.82;4.22;;;;;;;6.74;52.77;94659.78;4805306;29;20042;-76
2021/03/09 16:15:07;;;;;;;7.45;4.65;;;;;;;6.73;54.55;94663.31;4802308;29;20034;-75
2021/03/09 16:17:33;;;;;;;5.32;3.40;;;;;;;6.31;56.50;94650.41;4812167;29;20140;-75
2021/03/09 16:19:58;;;;;;;4.95;3.58;;;;;;;6.29;56.88;94670.34;4820358;29;20560;-75
2021/03/09 16:22:24;;;;;;;4.60;4.20;;;;;;;6.34;57.34;94662.97;4853860;29;20484;-76
2021/03/09 16:24:49;;;;;;;5.22;4.75;;;;;;;6.40;58.27;94664.91;4841240;29;20481;-76
2021/03/09 16:27:15;;;;;;;6.78;4.30;;;;;;;6.44;58.32;94663.66;4845005;29;20037;-77
2021/03/09 16:29:40;;;;;;;5.05;4.47;;;;;;;6.38;58.35;94666.84;4844177;29;20029;-77
2021/03/09 16:32:06;;;;;;;4.63;4.05;;;;;;;6.29;57.82;94670.34;4829144;29;20034;-77
2021/03/09 16:34:32;;;;;;;4.57;3.85;;;;;;;6.37;56.89;94657.50;4845404;29;20037;-79
2021/03/09 16:36:57;;;;;;;7.45;4.18;;;;;;;6.65;56.69;94666.66;4841223;29;20046;-79
2021/03/09 16:39:23;;;;;;;4.78;4.13;;;;;;;6.55;55.92;94672.88;4861710;29;20034;-80
2021/03/09 16:41:48;;;;;;;5.10;3.67;;;;;;;6.11;55.73;94649.81;4870739;29;20462;-79
2021/03/09 16:44:14;;;;;;;3.60;3.30;;;;;;;6.40;55.40;94654.63;4847050;29;20042;-79
2021/03/09 16:46:39;;;;;;;5.15;4.07;;;;;;;6.46;55.97;94645.50;4857755;29;20040;-79
2021/03/09 16:49:04;;;;;;;7.45;5.35;;;;;;;6.61;56.79;94664.56;4826469;29;20030;-79
2021/03/09 16:51:30;;;;;;;8.15;5.13;;;;;;;6.55;57.73;94665.16;4847335;29;20034;-80
2021/03/09 16:53:55;;;;;;;6.65;6.03;;;;;;;6.40;57.95;94661.53;4857967;29;20045;-80
2021/03/09 16:56:21;;;;;;;6.82;4.85;;;;;;;6.34;58.35;94652.66;4847849;29;20022;-79
2021/03/09 16:58:46;;;;;;;6.05;5.38;;;;;;;6.31;59.07;94665.84;4846585;29;20473;-79
2021/03/09 17:01:12;;;;;;;15.55;9.32;;;;;;;6.34;58.94;94657.81;4847350;29;20030;-79
2021/03/09 17:03:37;;;;;;;17.58;10.35;;;;;;;6.46;58.66;94654.00;4848637;29;20037;-78
2021/03/09 17:06:03;;;;;;;19.23;10.05;;;;;;;6.16;58.67;94621.09;4847175;29;20034;-78
2021/03/09 17:08:28;;;;;;;15.10;8.73;;;;;;;6.44;58.49;94658.50;4866321;29;20111;-81
2021/03/09 17:10:54;;;;;;;13.00;8.63;;;;;;;6.47;58.74;94657.41;4864968;29;20049;-78
2021/03/09 17:13:19;;;;;;;13.00;8.55;;;;;;;6.48;58.75;94664.16;4830761;29;20113;-78
2021/03/09 17:15:45;;;;;;;14.48;7.45;;;;;;;6.29;59.69;94660.81;4825997;29;20564;-78
2021/03/09 17:18:10;;;;;;;8.38;6.72;;;;;;;6.24;60.41;94665.63;4822019;29;20061;-79
2021/03/09 17:20:35;;;;;;;7.60;6.38;;;;;;;6.23;60.43;94665.75;4824867;29;20033;-78
2021/03/09 17:23:01;;;;;;;6.63;6.00;;;;;;;6.05;60.61;94652.16;4838339;29;20033;-78
2021/03/09 17:25:26;;;;;;;7.05;6.35;;;;;;;6.02;60.86;94663.56;4823094;29;20042;-78
2021/03/09 17:27:52;;;;;;;8.25;7.45;;;;;;;5.96;61.80;94664.16;4824284;29;20037;-78
2021/03/09 17:30:17;;;;;;;11.07;7.88;;;;;;;6.12;60.86;94676.31;4810622;29;20038;-78
2021/03/09 17:32:43;;;;;;;9.35;7.50;;;;;;;6.27;60.71;94680.75;4812356;29;20490;-79